Time;durP1;ratioP1;P1;durP2;ratioP2;P2;SDS_P1;SDS_P2;PMS_P1;PMS_P2;Temp;Humidity;BMP_temperature;BMP_pressure;BME280_temperature;BME280_humidity;BME280_pressure;Samples;Min_cycle;Max_cycle;Signal;HPM_P1;HPM_P2
2023/08/07 00:00:27;;;;;;;0.95;0.60;;;13.80;82.40;;;;;;4938229;28;20462;-63
2023/08/07 00:02:52;;;;;;;1.73;0.70;;;13.70;82.20;;;;;;4939614;28;20039;-63
2023/08/07 00:05:18;;;;;;;1.55;0.70;;;13.80;82.30;;;;;;4938836;28;20590;-62
2023/08/07 00:07:44;;;;;;;0.52;0.50;;;13.70;82.30;;;;;;4939934;28;20496;-63
2023/08/07 00:10:09;;;;;;;1.80;0.80;;;13.70;82.20;;;;;;4941041;28;20043;-65
2023/08/07 00:12:35;;;;;;;1.17;0.70;;;13.70;82.10;;;;;;4939025;28;20519;-63
2023/08/07 00:15:04;;;;;;;0.68;0.60;;;13.70;82.10;;;;;;4936995;28;20431;-63
2023/08/07 00:17:30;;;;;;;1.38;0.60;;;13.70;82.20;;;;;;4938560;28;20050;-62
2023/08/07 00:19:56;;;;;;;1.08;0.70;;;13.70;82.20;;;;;;4935148;28;20442;-65
2023/08/07 00:22:21;;;;;;;0.82;0.70;;;13.70;82.20;;;;;;4935931;28;20074;-63
2023/08/07 00:24:47;;;;;;;0.85;0.68;;;13.70;82.20;;;;;;4933977;28;20166;-63
2023/08/07 00:27:14;;;;;;;0.80;0.60;;;13.60;82.10;;;;;;4936922;28;20043;-63
2023/08/07 00:29:39;;;;;;;1.58;0.80;;;13.60;82.20;;;;;;4937439;28;20098;-62
2023/08/07 00:32:06;;;;;;;0.70;0.60;;;13.60;82.10;;;;;;4936903;28;20090;-62
2023/08/07 00:34:31;;;;;;;2.22;0.75;;;13.60;82.10;;;;;;4936964;28;20130;-63
2023/08/07 00:36:57;;;;;;;1.48;0.63;;;13.60;82.10;;;;;;4939752;28;20118;-62
2023/08/07 00:39:22;;;;;;;3.17;0.65;;;13.50;81.90;;;;;;4939208;28;20042;-62
2023/08/07 00:41:48;;;;;;;0.70;0.70;;;13.60;82.00;;;;;;4939455;28;20091;-63
2023/08/07 00:44:14;;;;;;;1.35;0.70;;;13.60;81.70;;;;;;4939099;28;20058;-62
2023/08/07 00:46:40;;;;;;;1.13;0.80;;;13.60;81.70;;;;;;4941276;28;20067;-63
2023/08/07 00:49:08;;;;;;;0.50;0.50;;;13.50;81.60;;;;;;4941717;28;20059;-65
2023/08/07 00:51:33;;;;;;;1.42;0.70;;;13.50;81.50;;;;;;4939628;28;20037;-63
2023/08/07 00:54:03;;;;;;;3.58;0.70;;;13.50;81.40;;;;;;4940949;28;20251;-63
2023/08/07 00:56:29;;;;;;;2.45;0.80;;;13.50;81.50;;;;;;4924702;28;20121;-64
2023/08/07 00:58:54;;;;;;;1.42;0.70;;;13.50;81.40;;;;;;4937403;28;20122;-63
2023/08/07 01:01:20;;;;;;;1.67;0.68;;;13.50;81.30;;;;;;4941464;28;20162;-63
2023/08/07 01:03:46;;;;;;;1.00;0.70;;;13.50;81.30;;;;;;4940095;28;20047;-62
2023/08/07 01:06:11;;;;;;;1.13;0.77;;;13.50;81.30;;;;;;4941983;28;20055;-62
2023/08/07 01:08:38;;;;;;;1.20;0.60;;;13.50;81.30;;;;;;4941311;28;20253;-63
2023/08/07 01:11:45;;;;;;;1.00;0.88;;;13.50;81.30;;;;;;4943499;28;20043;-63
2023/08/07 01:14:26;;;;;;;1.85;0.75;;;13.50;81.30;;;;;;4938321;28;20456;-62
2023/08/07 01:16:56;;;;;;;0.82;0.77;;;13.50;81.20;;;;;;4939003;28;20054;-62
2023/08/07 01:19:28;;;;;;;0.70;0.70;;;13.40;81.10;;;;;;4938927;28;20048;-63
2023/08/07 01:22:10;;;;;;;1.15;0.88;;;13.50;81.20;;;;;;4939366;28;20090;-62
2023/08/07 01:24:37;;;;;;;1.48;0.77;;;13.50;81.30;;;;;;4938124;28;20553;-61
2023/08/07 01:27:17;;;;;;;2.67;0.70;;;13.50;81.10;;;;;;4938805;28;20247;-63
2023/08/07 01:29:55;;;;;;;1.25;0.68;;;13.50;81.30;;;;;;4939713;28;20086;-64
2023/08/07 01:32:35;;;;;;;2.13;0.90;;;13.50;81.00;;;;;;4940287;28;20182;-62
2023/08/07 01:35:03;;;;;;;1.17;0.70;;;13.50;81.20;;;;;;4939183;28;20040;-64
2023/08/07 01:37:30;;;;;;;1.05;0.80;;;13.50;81.00;;;;;;4939999;28;20043;-64
2023/08/07 01:40:00;;;;;;;1.55;0.80;;;13.40;81.00;;;;;;4936914;28;20613;-64
2023/08/07 01:42:26;;;;;;;0.90;0.70;;;13.40;80.90;;;;;;4938502;28;20065;-64
2023/08/07 01:44:52;;;;;;;1.75;0.80;;;13.40;80.80;;;;;;4938673;28;20032;-63
2023/08/07 01:47:18;;;;;;;1.92;0.80;;;13.40;80.80;;;;;;4937401;28;20082;-64
2023/08/07 01:49:43;;;;;;;0.90;0.80;;;13.40;80.80;;;;;;4936536;28;20138;-64
2023/08/07 01:52:09;;;;;;;0.68;0.68;;;13.40;80.90;;;;;;4939866;28;20036;-62
2023/08/07 01:54:35;;;;;;;2.58;0.75;;;13.40;81.00;;;;;;4936824;28;20134;-64
2023/08/07 01:57:00;;;;;;;0.63;0.60;;;13.40;81.00;;;;;;4937696;28;20058;-64
2023/08/07 01:59:26;;;;;;;1.00;0.52;;;13.30;81.00;;;;;;4940305;28;20703;-62
2023/08/07 02:01:51;;;;;;;0.82;0.60;;;13.30;81.00;;;;;;4939436;28;20412;-64
2023/08/07 02:04:17;;;;;;;0.98;0.75;;;13.30;80.90;;;;;;4940599;28;20027;-64
2023/08/07 02:06:42;;;;;;;0.85;0.85;;;13.30;81.00;;;;;;4939058;28;20076;-64
2023/08/07 02:09:08;;;;;;;1.40;0.70;;;13.30;81.00;;;;;;4938571;28;20588;-64
2023/08/07 02:11:34;;;;;;;1.20;0.70;;;13.30;81.00;;;;;;4940640;28;20034;-64
2023/08/07 02:13:59;;;;;;;2.75;0.80;;;13.30;81.00;;;;;;4939298;28;20075;-65
2023/08/07 02:16:25;;;;;;;1.13;0.73;;;13.30;81.00;;;;;;4938918;28;20418;-63
2023/08/07 02:18:50;;;;;;;1.60;0.80;;;13.30;81.00;;;;;;4938869;28;20152;-65
2023/08/07 02:21:16;;;;;;;0.70;0.65;;;13.30;81.00;;;;;;4940428;28;20041;-64
2023/08/07 02:23:41;;;;;;;0.98;0.80;;;13.30;81.00;;;;;;4939212;28;20094;-64
2023/08/07 02:26:07;;;;;;;3.50;0.88;;;13.30;81.00;;;;;;4939617;28;20036;-62
2023/08/07 02:28:32;;;;;;;1.10;0.80;;;13.30;81.10;;;;;;4937125;28;20555;-65
2023/08/07 02:30:58;;;;;;;1.90;0.88;;;13.30;81.20;;;;;;4937949;28;20046;-62
2023/08/07 02:33:23;;;;;;;1.13;0.85;;;13.20;81.10;;;;;;4940006;28;20040;-64
2023/08/07 02:35:50;;;;;;;0.60;0.60;;;13.20;81.00;;;;;;4939556;28;20035;-64
2023/08/07 02:38:16;;;;;;;1.70;0.88;;;13.30;81.10;;;;;;4937379;28;20562;-65
2023/08/07 02:40:42;;;;;;;2.03;0.95;;;13.20;81.10;;;;;;4936678;28;20047;-64
2023/08/07 02:43:08;;;;;;;0.90;0.75;;;13.20;81.10;;;;;;4940004;28;20046;-64
2023/08/07 02:45:35;;;;;;;1.45;0.80;;;13.30;81.30;;;;;;4938104;28;20292;-64
2023/08/07 02:48:00;;;;;;;1.00;0.75;;;13.30;81.30;;;;;;4938151;28;20558;-65
2023/08/07 02:50:27;;;;;;;0.90;0.73;;;13.30;81.30;;;;;;4939926;28;20133;-64
2023/08/07 02:52:53;;;;;;;1.10;0.80;;;13.30;81.20;;;;;;4939194;28;20047;-65
2023/08/07 02:55:18;;;;;;;1.13;0.85;;;13.30;81.00;;;;;;4938657;28;20051;-65
2023/08/07 02:57:44;;;;;;;1.45;0.80;;;13.30;80.80;;;;;;4938927;28;20499;-64
2023/08/07 03:00:11;;;;;;;2.33;1.00;;;13.30;80.70;;;;;;4937422;28;20046;-64
2023/08/07 03:02:36;;;;;;;1.77;0.90;;;13.30;80.60;;;;;;4938659;28;20050;-64
2023/08/07 03:05:02;;;;;;;1.95;0.85;;;13.30;80.70;;;;;;4938732;28;20411;-63
2023/08/07 03:07:28;;;;;;;1.63;0.90;;;13.40;80.60;;;;;;4937625;28;20067;-65
2023/08/07 03:09:53;;;;;;;2.85;0.90;;;13.40;80.60;;;;;;4938180;28;20032;-63
2023/08/07 03:12:19;;;;;;;0.98;0.60;;;13.40;80.60;;;;;;4939933;28;20091;-64
2023/08/07 03:14:44;;;;;;;0.98;0.65;;;13.40;80.60;;;;;;4922348;28;20803;-64
2023/08/07 03:17:10;;;;;;;1.88;0.80;;;13.40;80.70;;;;;;4936752;28;20078;-63
2023/08/07 03:19:36;;;;;;;1.13;0.95;;;13.40;80.60;;;;;;4936935;28;20047;-64
2023/08/07 03:22:01;;;;;;;1.73;1.00;;;13.40;80.60;;;;;;4939404;28;20038;-65
2023/08/07 03:24:27;;;;;;;1.88;0.90;;;13.40;81.10;;;;;;4938589;28;20050;-64
2023/08/07 03:26:52;;;;;;;1.65;0.90;;;13.40;80.20;;;;;;4919888;29;20035;-64
2023/08/07 03:29:18;;;;;;;2.42;1.00;;;13.50;80.10;;;;;;4936085;28;20070;-64
2023/08/07 03:31:44;;;;;;;1.17;0.75;;;13.40;80.10;;;;;;4937307;28;20031;-65
2023/08/07 03:34:09;;;;;;;1.35;0.95;;;13.50;80.10;;;;;;4939353;28;20134;-65
2023/08/07 03:36:35;;;;;;;1.10;1.00;;;13.50;80.10;;;;;;4938755;28;20954;-64
2023/08/07 03:39:00;;;;;;;2.65;1.08;;;13.40;79.90;;;;;;4935051;28;20035;-65
2023/08/07 03:41:26;;;;;;;1.40;0.95;;;13.40;79.80;;;;;;4938225;28;20515;-65
2023/08/07 03:43:52;;;;;;;1.52;0.85;;;13.40;79.60;;;;;;4937030;28;20118;-64
2023/08/07 03:46:17;;;;;;;2.40;1.02;;;13.40;79.60;;;;;;4935162;28;20486;-63
2023/08/07 03:48:43;;;;;;;2.20;0.70;;;13.40;79.60;;;;;;4917745;28;20511;-64
2023/08/07 03:51:09;;;;;;;3.92;1.00;;;13.40;79.60;;;;;;4937622;28;20054;-64
2023/08/07 03:53:34;;;;;;;1.50;0.90;;;13.30;79.50;;;;;;4936613;28;20033;-64
2023/08/07 03:56:00;;;;;;;2.47;0.90;;;13.30;79.40;;;;;;4934305;28;20039;-64
2023/08/07 03:58:25;;;;;;;1.48;0.95;;;13.30;79.30;;;;;;4935885;28;20031;-64
2023/08/07 04:00:51;;;;;;;1.38;0.90;;;13.30;79.20;;;;;;4936098;28;20035;-64
2023/08/07 04:03:18;;;;;;;2.72;0.70;;;13.30;79.10;;;;;;4936175;28;20050;-63
2023/08/07 04:05:44;;;;;;;2.10;1.10;;;13.30;79.10;;;;;;4936948;28;20036;-63
2023/08/07 04:08:09;;;;;;;1.65;1.00;;;13.30;79.10;;;;;;4935861;28;20139;-64
2023/08/07 04:10:35;;;;;;;3.67;0.90;;;13.30;79.10;;;;;;4939491;28;20035;-64
2023/08/07 04:13:00;;;;;;;1.98;0.90;;;13.30;79.10;;;;;;4937290;28;20036;-64
2023/08/07 04:15:26;;;;;;;1.40;0.80;;;13.20;79.10;;;;;;4933931;28;20040;-65
2023/08/07 04:17:52;;;;;;;4.10;1.00;;;13.20;78.90;;;;;;4936682;28;20043;-65
2023/08/07 04:20:17;;;;;;;4.35;1.20;;;13.20;78.90;;;;;;4938350;28;20035;-65
2023/08/07 04:22:44;;;;;;;1.48;1.00;;;13.20;78.80;;;;;;4936973;28;20043;-64
2023/08/07 04:25:10;;;;;;;2.55;0.98;;;13.20;78.70;;;;;;4935373;28;20051;-64
2023/08/07 04:27:35;;;;;;;1.50;0.90;;;13.20;78.70;;;;;;4917600;29;20159;-65
2023/08/07 04:30:01;;;;;;;1.40;0.80;;;13.20;78.90;;;;;;4937854;28;20066;-65
2023/08/07 04:32:26;;;;;;;3.10;1.10;;;13.20;78.90;;;;;;4933314;28;22531;-64
2023/08/07 04:34:52;;;;;;;3.22;0.90;;;13.20;78.90;;;;;;4935116;28;20118;-64
2023/08/07 04:37:18;;;;;;;1.80;0.80;;;13.10;79.80;;;;;;4936780;28;20031;-63
2023/08/07 04:39:43;;;;;;;1.80;0.98;;;13.10;78.70;;;;;;4936485;28;20126;-64
2023/08/07 04:42:09;;;;;;;2.28;1.08;;;13.20;78.70;;;;;;4936585;28;20031;-64
2023/08/07 04:44:34;;;;;;;2.08;1.10;;;13.20;79.60;;;;;;4934760;28;20046;-64
2023/08/07 04:47:00;;;;;;;1.17;0.80;;;13.20;78.70;;;;;;4935453;28;20055;-64
2023/08/07 04:49:25;;;;;;;1.98;1.00;;;13.20;78.80;;;;;;4935968;28;20110;-64
2023/08/07 04:51:51;;;;;;;1.20;0.90;;;13.20;78.80;;;;;;4937358;28;20044;-64
2023/08/07 04:54:17;;;;;;;1.55;1.00;;;13.20;78.80;;;;;;4937340;28;20154;-64
2023/08/07 04:56:44;;;;;;;1.42;0.90;;;13.20;78.90;;;;;;4938293;28;20090;-64
2023/08/07 04:59:10;;;;;;;1.48;0.77;;;13.20;78.90;;;;;;4936471;28;20070;-65
2023/08/07 05:01:35;;;;;;;3.75;1.02;;;13.20;78.90;;;;;;4938528;28;20039;-65
2023/08/07 05:04:02;;;;;;;1.35;0.80;;;13.20;78.90;;;;;;4939376;28;20083;-64
2023/08/07 05:06:27;;;;;;;2.90;0.82;;;13.20;78.70;;;;;;4938712;28;20527;-64
2023/08/07 05:08:53;;;;;;;1.20;1.00;;;13.20;78.70;;;;;;4938014;28;20039;-64
2023/08/07 05:11:20;;;;;;;0.98;0.88;;;13.20;78.70;;;;;;4940138;28;20042;-64
2023/08/07 05:13:45;;;;;;;1.42;0.90;;;13.20;78.70;;;;;;4939219;28;20522;-63
2023/08/07 05:16:11;;;;;;;2.40;0.98;;;13.20;78.70;;;;;;4934513;28;20047;-64
2023/08/07 05:18:36;;;;;;;1.33;0.80;;;13.20;78.60;;;;;;4935523;28;20024;-64
2023/08/07 05:21:02;;;;;;;1.15;0.82;;;13.20;78.60;;;;;;4938211;28;20047;-64
2023/08/07 05:23:28;;;;;;;1.73;0.70;;;13.20;78.60;;;;;;4939951;28;20056;-64
2023/08/07 05:25:53;;;;;;;1.92;1.10;;;13.20;78.60;;;;;;4941305;28;20106;-63
2023/08/07 05:28:19;;;;;;;4.80;1.00;;;13.20;78.60;;;;;;4940796;28;20046;-63
2023/08/07 05:30:45;;;;;;;1.77;0.80;;;13.20;78.60;;;;;;4938445;28;20039;-64
2023/08/07 05:33:10;;;;;;;1.30;1.00;;;13.20;78.60;;;;;;4940508;28;20031;-64
2023/08/07 05:35:38;;;;;;;1.23;0.93;;;13.30;78.70;;;;;;4939899;28;20621;-64
2023/08/07 05:38:04;;;;;;;1.48;0.93;;;13.30;78.60;;;;;;4937300;28;20134;-64
2023/08/07 05:40:29;;;;;;;1.92;0.90;;;13.30;78.70;;;;;;4937967;28;20563;-64
2023/08/07 05:42:55;;;;;;;1.65;0.80;;;13.30;78.60;;;;;;4938470;28;20489;-64
2023/08/07 05:45:21;;;;;;;2.28;0.90;;;13.40;78.70;;;;;;4940724;28;20060;-64
2023/08/07 05:47:46;;;;;;;4.05;1.17;;;13.40;78.70;;;;;;4937629;28;20059;-65
2023/08/07 05:50:12;;;;;;;1.10;1.00;;;13.40;78.60;;;;;;4939698;28;20042;-64
2023/08/07 05:52:37;;;;;;;1.10;0.90;;;13.50;78.60;;;;;;4938113;28;20079;-64
2023/08/07 05:55:04;;;;;;;1.67;0.90;;;13.50;78.60;;;;;;4939214;28;20082;-64
2023/08/07 05:57:29;;;;;;;1.92;0.95;;;13.50;78.40;;;;;;4939774;28;20038;-64
2023/08/07 05:59:55;;;;;;;2.05;0.90;;;13.60;78.50;;;;;;4940599;28;20032;-64
2023/08/07 06:02:21;;;;;;;1.15;0.80;;;13.60;78.60;;;;;;4938102;28;20047;-64
2023/08/07 06:04:47;;;;;;;9.38;1.23;;;13.60;78.40;;;;;;4940492;28;20031;-64
2023/08/07 06:07:12;;;;;;;2.03;1.20;;;13.70;78.40;;;;;;4937457;28;20038;-64
2023/08/07 06:09:38;;;;;;;2.25;1.10;;;13.70;78.30;;;;;;4938381;28;20608;-64
2023/08/07 06:12:04;;;;;;;1.00;0.80;;;13.80;78.20;;;;;;4941939;28;20042;-64
2023/08/07 06:14:30;;;;;;;0.95;0.90;;;13.80;78.10;;;;;;4938262;28;20115;-64
2023/08/07 06:16:57;;;;;;;1.15;0.80;;;13.80;78.10;;;;;;4939536;28;20035;-64
2023/08/07 06:19:23;;;;;;;1.00;0.90;;;13.80;78.00;;;;;;4942016;28;20197;-63
2023/08/07 06:21:49;;;;;;;1.38;0.95;;;13.90;77.90;;;;;;4941542;29;20607;-64
2023/08/07 06:24:14;;;;;;;1.55;0.90;;;13.90;77.70;;;;;;4942173;28;20036;-64
2023/08/07 06:26:40;;;;;;;1.63;0.95;;;14.00;77.70;;;;;;4941555;28;20046;-64
2023/08/07 06:29:06;;;;;;;1.10;1.00;;;14.00;77.60;;;;;;4941843;28;20033;-65
2023/08/07 06:31:31;;;;;;;1.42;1.00;;;14.00;77.50;;;;;;4939835;28;20059;-64
2023/08/07 06:33:59;;;;;;;2.17;0.90;;;14.10;77.60;;;;;;4936966;28;20051;-64
2023/08/07 06:36:25;;;;;;;1.52;1.00;;;14.10;77.50;;;;;;4940673;28;20040;-64
2023/08/07 06:38:51;;;;;;;3.83;1.05;;;14.10;77.30;;;;;;4936440;28;20054;-64
2023/08/07 06:41:16;;;;;;;1.38;0.90;;;14.20;77.90;;;;;;4939797;29;20090;-65
2023/08/07 06:43:42;;;;;;;1.50;1.00;;;14.20;77.00;;;;;;4927806;28;20066;-64
2023/08/07 06:46:07;;;;;;;2.00;0.95;;;14.20;77.00;;;;;;4934103;29;20042;-64
2023/08/07 06:48:33;;;;;;;1.73;1.02;;;14.30;76.70;;;;;;4933962;28;20062;-64
2023/08/07 06:50:59;;;;;;;2.70;1.10;;;14.30;76.50;;;;;;4936682;28;20105;-64
2023/08/07 06:53:24;;;;;;;2.03;1.05;;;14.30;76.50;;;;;;4935828;28;20425;-64
2023/08/07 06:55:50;;;;;;;1.67;0.90;;;14.40;76.30;;;;;;4932296;28;20041;-62
2023/08/07 06:58:15;;;;;;;3.58;1.30;;;14.40;76.10;;;;;;4931070;28;20442;-64
2023/08/07 07:00:41;;;;;;;1.17;0.98;;;14.50;76.20;;;;;;4935215;28;20499;-64
2023/08/07 07:03:09;;;;;;;1.33;0.90;;;14.50;76.10;;;;;;4939266;28;20221;-64
2023/08/07 07:05:35;;;;;;;1.00;0.90;;;14.60;76.10;;;;;;4939443;28;20028;-64
2023/08/07 07:08:00;;;;;;;0.90;0.90;;;14.60;75.80;;;;;;4939958;28;20401;-64
2023/08/07 07:10:26;;;;;;;2.40;1.48;;;14.60;76.00;;;;;;4942776;28;20117;-63
2023/08/07 07:12:52;;;;;;;2.25;1.00;;;14.70;75.60;;;;;;4938178;28;20063;-63
2023/08/07 07:15:18;;;;;;;2.83;1.08;;;14.70;75.40;;;;;;4938642;28;20217;-63
2023/08/07 07:17:43;;;;;;;1.23;1.00;;;14.80;75.50;;;;;;4934090;28;20676;-64
2023/08/07 07:20:09;;;;;;;2.42;1.02;;;14.80;75.50;;;;;;4934785;28;20044;-64
2023/08/07 07:22:35;;;;;;;1.50;1.15;;;14.90;75.60;;;;;;4934054;28;20515;-64
2023/08/07 07:25:01;;;;;;;2.97;1.20;;;14.90;74.60;;;;;;4931139;28;20062;-64
2023/08/07 07:27:27;;;;;;;1.92;1.10;;;15.00;74.50;;;;;;4933747;28;20495;-64
2023/08/07 07:29:52;;;;;;;2.25;1.20;;;15.00;74.20;;;;;;4934740;28;20042;-64
2023/08/07 07:32:18;;;;;;;1.10;0.90;;;15.00;73.90;;;;;;4935436;28;20549;-63
2023/08/07 07:34:44;;;;;;;3.95;1.05;;;15.10;74.20;;;;;;4937198;28;20211;-64
2023/08/07 07:37:10;;;;;;;1.25;1.15;;;15.10;74.10;;;;;;4935170;28;20121;-64
2023/08/07 07:39:35;;;;;;;2.60;1.00;;;15.10;73.90;;;;;;4932717;28;20043;-64
2023/08/07 07:42:01;;;;;;;1.80;1.10;;;15.20;73.90;;;;;;4933306;28;20087;-64
2023/08/07 07:44:27;;;;;;;2.97;0.93;;;15.20;73.90;;;;;;4937361;28;20035;-65
2023/08/07 07:46:52;;;;;;;1.92;1.20;;;15.30;73.80;;;;;;4933822;28;20101;-64
2023/08/07 07:49:18;;;;;;;1.60;1.05;;;15.30;73.30;;;;;;4936939;28;20070;-64
2023/08/07 07:51:44;;;;;;;2.28;1.00;;;15.30;73.30;;;;;;4933878;28;20182;-64
2023/08/07 07:54:10;;;;;;;1.05;0.88;;;15.30;73.20;;;;;;4936727;28;20538;-64
2023/08/07 07:56:36;;;;;;;1.52;0.93;;;15.40;73.30;;;;;;4932844;28;20353;-62
2023/08/07 07:59:02;;;;;;;1.60;1.00;;;15.40;73.00;;;;;;4937701;28;20542;-64
2023/08/07 08:01:28;;;;;;;1.55;0.93;;;15.50;72.60;;;;;;4932185;28;20051;-64
2023/08/07 08:03:53;;;;;;;2.05;1.00;;;15.40;73.10;;;;;;4934474;28;20038;-64
2023/08/07 08:06:19;;;;;;;1.00;0.82;;;15.40;73.50;;;;;;4935075;28;20039;-64
2023/08/07 08:08:45;;;;;;;1.10;1.00;;;15.50;73.80;;;;;;4933328;28;20652;-64
2023/08/07 08:11:10;;;;;;;2.00;0.90;;;15.60;73.70;;;;;;4933170;28;20043;-64
2023/08/07 08:13:38;;;;;;;1.60;1.15;;;15.70;73.80;;;;;;4936267;28;20043;-64
2023/08/07 08:16:05;;;;;;;1.70;0.98;;;15.80;73.50;;;;;;4935342;28;20517;-65
2023/08/07 08:18:31;;;;;;;1.35;0.95;;;15.80;73.30;;;;;;4933280;28;20286;-64
2023/08/07 08:20:56;;;;;;;2.80;1.38;;;15.90;73.10;;;;;;4938648;29;21721;-63
2023/08/07 08:23:22;;;;;;;1.90;1.00;;;16.00;73.00;;;;;;4939473;28;20047;-63
2023/08/07 08:25:49;;;;;;;1.30;0.90;;;16.10;73.20;;;;;;4931308;29;20051;-63
2023/08/07 08:28:15;;;;;;;2.55;0.85;;;16.10;72.90;;;;;;4940259;28;20045;-64
2023/08/07 08:30:41;;;;;;;1.10;0.80;;;16.20;72.40;;;;;;4939790;28;20035;-63
2023/08/07 08:33:09;;;;;;;2.03;1.10;;;16.30;72.30;;;;;;4940609;29;20038;-64
2023/08/07 08:35:35;;;;;;;1.38;1.00;;;16.40;71.80;;;;;;4935360;28;20090;-63
2023/08/07 08:38:01;;;;;;;1.60;0.80;;;16.40;71.80;;;;;;4930036;28;20094;-63
2023/08/07 08:40:26;;;;;;;0.80;0.80;;;16.50;71.70;;;;;;4938930;28;20464;-64
2023/08/07 08:42:57;;;;;;;1.40;0.93;;;16.50;71.30;;;;;;4937469;29;20055;-64
2023/08/07 08:45:25;;;;;;;2.15;1.15;;;16.50;71.10;;;;;;4938574;28;20031;-64
2023/08/07 08:47:54;;;;;;;5.03;0.95;;;16.60;72.00;;;;;;4940106;28;20039;-64
2023/08/07 08:50:21;;;;;;;1.40;1.00;;;16.60;72.00;;;;;;4937908;28;20039;-63
2023/08/07 08:52:46;;;;;;;2.00;0.98;;;16.70;73.00;;;;;;4936940;28;20047;-64
2023/08/07 08:55:13;;;;;;;2.15;1.00;;;16.80;72.30;;;;;;4939565;28;20085;-62
2023/08/07 08:57:39;;;;;;;0.90;0.90;;;16.90;71.40;;;;;;4942841;29;20044;-64
2023/08/07 09:00:14;;;;;;;0.90;0.85;;;16.90;70.90;;;;;;4942588;28;20032;-63
2023/08/07 09:02:40;;;;;;;;;;;17.00;70.80;;;;;;4943536;28;20086;-63
2023/08/07 09:05:07;;;;;;;1.05;0.60;;;17.10;68.50;;;;;;4942913;28;19996;-63
2023/08/07 09:07:33;;;;;;;0.85;0.60;;;17.10;67.80;;;;;;4943020;28;20038;-64
2023/08/07 09:10:01;;;;;;;1.48;0.80;;;17.20;65.80;;;;;;4942418;28;20503;-63
2023/08/07 09:12:31;;;;;;;0.80;0.80;;;17.20;66.30;;;;;;4945287;28;20511;-64
2023/08/07 09:14:58;;;;;;;0.80;0.80;;;17.20;64.30;;;;;;4942457;28;20040;-64
2023/08/07 09:17:27;;;;;;;1.58;1.27;;;17.20;63.60;;;;;;4942574;28;20095;-64
2023/08/07 09:19:53;;;;;;;1.38;1.27;;;17.20;64.30;;;;;;4943217;28;20057;-64
2023/08/07 09:22:19;;;;;;;1.02;0.90;;;17.20;64.50;;;;;;4941233;28;20917;-64
2023/08/07 09:24:45;;;;;;;1.33;0.98;;;17.20;64.10;;;;;;4940815;28;20036;-63
2023/08/07 09:27:11;;;;;;;1.30;1.10;;;17.20;64.10;;;;;;4941439;28;20034;-64
2023/08/07 09:29:39;;;;;;;0.75;0.63;;;17.10;64.40;;;;;;4941976;28;20119;-64
2023/08/07 09:32:09;;;;;;;1.77;0.75;;;17.10;64.60;;;;;;4944107;28;20042;-64
2023/08/07 09:34:34;;;;;;;1.02;0.60;;;17.10;65.70;;;;;;4942007;28;20042;-63
2023/08/07 09:37:01;;;;;;;1.02;0.93;;;17.00;66.90;;;;;;4942706;28;20454;-64
2023/08/07 09:39:27;;;;;;;2.78;0.80;;;17.00;66.70;;;;;;4942375;28;20500;-63
2023/08/07 09:41:52;;;;;;;1.10;0.63;;;17.10;67.10;;;;;;4942491;28;20035;-64
2023/08/07 09:44:18;;;;;;;1.38;0.65;;;17.10;66.50;;;;;;4943273;28;20034;-64
2023/08/07 09:46:44;;;;;;;0.77;0.60;;;17.20;65.70;;;;;;4940967;28;20031;-63
2023/08/07 09:49:10;;;;;;;1.98;0.60;;;17.30;65.70;;;;;;4939613;28;20037;-63
2023/08/07 09:51:44;;;;;;;0.60;0.60;;;17.30;66.90;;;;;;4939869;28;20517;-64
2023/08/07 09:54:09;;;;;;;0.60;0.60;;;17.40;64.40;;;;;;4942777;28;20032;-64
2023/08/07 09:56:36;;;;;;;1.85;0.70;;;17.50;64.10;;;;;;4941586;28;20127;-64
2023/08/07 09:59:01;;;;;;;0.60;0.60;;;17.60;64.80;;;;;;4939379;28;20046;-62
2023/08/07 10:01:27;;;;;;;0.60;0.57;;;17.70;64.60;;;;;;4942664;29;20036;-64
2023/08/07 10:03:54;;;;;;;1.17;0.73;;;17.80;65.40;;;;;;4943813;28;20037;-63
2023/08/07 10:06:20;;;;;;;0.70;0.60;;;17.80;64.60;;;;;;4942993;28;20053;-63
2023/08/07 10:08:45;;;;;;;1.58;0.80;;;17.90;64.10;;;;;;4940343;28;20027;-64
2023/08/07 10:11:11;;;;;;;1.05;0.70;;;18.00;64.00;;;;;;4944525;28;20082;-62
2023/08/07 10:13:38;;;;;;;1.20;0.77;;;18.10;63.60;;;;;;4941694;28;20042;-64
2023/08/07 10:16:04;;;;;;;2.03;1.08;;;18.10;63.30;;;;;;4941964;28;20043;-64
2023/08/07 10:18:29;;;;;;;1.00;0.75;;;18.20;62.90;;;;;;4941070;28;20035;-63
2023/08/07 10:20:57;;;;;;;0.82;0.70;;;18.30;62.70;;;;;;4941359;28;20066;-64
2023/08/07 10:23:23;;;;;;;2.13;1.00;;;18.30;63.10;;;;;;4942706;28;20055;-63
2023/08/07 10:25:50;;;;;;;2.40;0.80;;;18.40;62.20;;;;;;4942080;28;20708;-64
2023/08/07 10:28:20;;;;;;;2.17;0.70;;;18.40;61.70;;;;;;4942643;28;20035;-64
2023/08/07 10:30:45;;;;;;;1.58;0.90;;;18.50;61.60;;;;;;4940847;28;20035;-64
2023/08/07 10:33:13;;;;;;;2.58;1.20;;;18.50;61.50;;;;;;4942090;28;20039;-64
2023/08/07 10:35:50;;;;;;;1.08;0.90;;;18.60;60.00;;;;;;4941642;28;20039;-64
2023/08/07 10:38:19;;;;;;;1.38;0.88;;;18.60;59.10;;;;;;4940660;28;20031;-62
2023/08/07 10:41:06;;;;;;;1.40;0.90;;;18.60;59.10;;;;;;4940948;28;20499;-64
2023/08/07 10:43:40;;;;;;;0.60;0.60;;;18.60;58.90;;;;;;4938518;28;20043;-63
2023/08/07 10:46:06;;;;;;;1.33;0.90;;;18.60;59.50;;;;;;4941782;28;20668;-64
2023/08/07 10:48:42;;;;;;;1.63;0.90;;;18.50;59.60;;;;;;4939596;28;20035;-64
2023/08/07 10:51:07;;;;;;;1.48;0.90;;;18.50;59.10;;;;;;4940355;28;20171;-63
2023/08/07 10:53:44;;;;;;;0.90;0.60;;;18.50;58.80;;;;;;4940317;29;20560;-64
2023/08/07 10:56:42;;;;;;;1.00;0.60;;;18.50;57.40;;;;;;4940290;28;20099;-64
2023/08/07 10:59:12;;;;;;;2.17;0.80;;;18.40;55.80;;;;;;4926363;28;20032;-64
2023/08/07 11:01:37;;;;;;;0.95;0.70;;;18.40;56.60;;;;;;4940426;28;20119;-64
2023/08/07 11:04:10;;;;;;;1.73;0.98;;;18.40;56.00;;;;;;4942160;28;20511;-64
2023/08/07 11:06:37;;;;;;;1.23;0.82;;;18.50;56.60;;;;;;4940330;28;20032;-64
2023/08/07 11:09:05;;;;;;;1.55;0.70;;;18.50;56.40;;;;;;4937305;28;20056;-63
2023/08/07 11:11:44;;;;;;;1.73;0.70;;;18.50;56.30;;;;;;4942206;28;20047;-64
2023/08/07 11:14:18;;;;;;;1.10;0.70;;;18.50;56.00;;;;;;4942757;28;20039;-64
2023/08/07 11:16:45;;;;;;;1.90;0.90;;;18.50;57.10;;;;;;4938122;28;20031;-65
2023/08/07 11:19:15;;;;;;;1.30;1.08;;;18.50;56.70;;;;;;4940087;28;20043;-64
2023/08/07 11:21:42;;;;;;;1.23;0.80;;;18.50;56.80;;;;;;4937090;28;20038;-65
2023/08/07 11:24:08;;;;;;;1.20;0.80;;;18.60;56.10;;;;;;4939594;28;20090;-64
2023/08/07 11:26:34;;;;;;;1.15;0.80;;;18.60;56.00;;;;;;4937951;28;20043;-64
2023/08/07 11:28:59;;;;;;;1.30;0.82;;;18.70;55.70;;;;;;4937287;28;20077;-64
2023/08/07 11:31:26;;;;;;;1.23;0.80;;;18.70;55.70;;;;;;4940030;28;20460;-64
2023/08/07 11:33:53;;;;;;;1.27;0.70;;;18.70;56.00;;;;;;4939845;28;20349;-62
2023/08/07 11:36:18;;;;;;;1.17;0.70;;;18.70;56.00;;;;;;4941962;28;20031;-64
2023/08/07 11:38:44;;;;;;;1.83;0.80;;;18.70;55.70;;;;;;4940545;28;20103;-63
2023/08/07 11:41:12;;;;;;;0.70;0.70;;;18.70;56.00;;;;;;4940235;28;20103;-64
2023/08/07 11:43:38;;;;;;;0.82;0.82;;;18.70;56.00;;;;;;4940890;28;20051;-64
2023/08/07 11:46:05;;;;;;;0.73;0.60;;;18.70;56.30;;;;;;4940266;28;20046;-64
2023/08/07 11:48:33;;;;;;;0.52;0.52;;;18.70;55.90;;;;;;4940134;28;20043;-64
2023/08/07 11:51:00;;;;;;;1.17;0.90;;;18.70;55.00;;;;;;4939489;28;20039;-64
2023/08/07 11:53:30;;;;;;;0.80;0.80;;;18.70;55.80;;;;;;4940532;28;20086;-64
2023/08/07 11:55:58;;;;;;;0.60;0.60;;;18.70;55.90;;;;;;4942041;28;20063;-64
2023/08/07 11:58:33;;;;;;;1.30;0.80;;;18.70;55.70;;;;;;4940302;28;20522;-64
2023/08/07 12:00:58;;;;;;;1.83;0.82;;;18.70;55.90;;;;;;4938424;28;20051;-64
2023/08/07 12:03:29;;;;;;;3.10;1.10;;;18.60;56.30;;;;;;4939578;28;20058;-64
2023/08/07 12:05:59;;;;;;;1.00;0.80;;;18.60;56.60;;;;;;4941003;28;20066;-64
2023/08/07 12:08:43;;;;;;;1.17;0.77;;;18.60;56.40;;;;;;4940581;28;20035;-64
2023/08/07 12:11:13;;;;;;;0.90;0.80;;;18.60;54.80;;;;;;4942816;28;20035;-64
2023/08/07 12:13:40;;;;;;;1.15;0.60;;;18.60;55.70;;;;;;4939449;28;20503;-65
2023/08/07 12:16:06;;;;;;;0.93;0.68;;;18.70;55.40;;;;;;4941667;28;20042;-65
2023/08/07 12:18:32;;;;;;;0.82;0.68;;;18.70;54.80;;;;;;4940046;28;20619;-64
2023/08/07 12:21:04;;;;;;;1.20;0.73;;;18.70;55.50;;;;;;4941657;28;20078;-64
2023/08/07 12:23:33;;;;;;;5.07;0.85;;;18.70;55.30;;;;;;4940136;28;20039;-62
2023/08/07 12:25:59;;;;;;;2.00;0.73;;;18.80;54.60;;;;;;4940421;28;20089;-64
2023/08/07 12:28:25;;;;;;;0.70;0.65;;;18.80;52.80;;;;;;4940372;28;20451;-64
2023/08/07 12:30:51;;;;;;;0.70;0.65;;;18.80;53.00;;;;;;4941549;28;20098;-63
2023/08/07 12:33:17;;;;;;;0.70;0.70;;;18.90;53.80;;;;;;4944494;28;20035;-64
2023/08/07 12:35:43;;;;;;;1.13;0.65;;;18.90;53.20;;;;;;4943959;28;20547;-64
2023/08/07 12:38:10;;;;;;;1.15;0.60;;;18.90;53.00;;;;;;4943989;28;20043;-64
2023/08/07 12:40:36;;;;;;;0.82;0.68;;;19.00;52.50;;;;;;4942707;28;20479;-64
2023/08/07 12:43:03;;;;;;;1.65;0.80;;;19.00;53.10;;;;;;4943081;28;20440;-64
2023/08/07 12:45:28;;;;;;;1.83;0.70;;;19.00;53.40;;;;;;4944295;28;20046;-64